createdAt,value
2023-01-19T00:00:54.558Z,97547.66
2023-01-19T00:03:21.590Z,97532.63
2023-01-19T00:05:48.565Z,97677.84
2023-01-19T00:08:15.332Z,97597.56
2023-01-19T00:10:47.772Z,97569.91
2023-01-19T00:13:15.793Z,97678.03
2023-01-19T00:15:43.005Z,97627.06
2023-01-19T00:18:11.145Z,97586.22
2023-01-19T00:20:39.345Z,97544.75
2023-01-19T00:23:08.003Z,97707.53
2023-01-19T00:25:35.471Z,97684.47
2023-01-19T00:28:02.409Z,97573.03
2023-01-19T00:30:29.282Z,97672.88
2023-01-19T00:32:56.406Z,97620.25
2023-01-19T00:35:23.287Z,97683.41
2023-01-19T00:37:50.318Z,97748.47
2023-01-19T00:40:17.508Z,97561.53
2023-01-19T00:42:44.594Z,97580.34
2023-01-19T00:45:16.177Z,97737.28
2023-01-19T00:47:42.932Z,97754.25
2023-01-19T00:50:14.454Z,97701.03
2023-01-19T00:52:41.995Z,97757.63
2023-01-19T00:55:10.189Z,97668.25
2023-01-19T00:57:37.794Z,97747.34
2023-01-19T01:00:11.657Z,97684.66
2023-01-19T01:02:39.959Z,97620.97
2023-01-19T01:05:07.860Z,97695.09
2023-01-19T01:07:41.249Z,97788.47
2023-01-19T01:10:16.845Z,97829.75
2023-01-19T01:12:53.649Z,97808.19
2023-01-19T01:15:26.380Z,97694.94
2023-01-19T01:17:53.632Z,97635.78
2023-01-19T01:20:27.956Z,97671.88
2023-01-19T01:22:56.235Z,97771.53
2023-01-19T01:25:24.807Z,97452.91
2023-01-19T01:27:52.417Z,97824.13
2023-01-19T01:30:19.943Z,97605.47
2023-01-19T01:32:46.758Z,97567.88
2023-01-19T01:35:14.022Z,97768.63
2023-01-19T01:37:41.127Z,97807.00
2023-01-19T01:40:09.032Z,97778.34
2023-01-19T01:42:35.893Z,97792.00
2023-01-19T01:45:07.612Z,97776.28
2023-01-19T01:47:47.195Z,97814.53
2023-01-19T01:50:26.432Z,97693.94
2023-01-19T01:53:06.639Z,97883.59
2023-01-19T01:55:43.274Z,97757.19
2023-01-19T01:58:11.346Z,97756.56
2023-01-19T02:00:58.807Z,97931.34
2023-01-19T02:03:26.916Z,97900.34
2023-01-19T02:05:57.607Z,97924.38
2023-01-19T02:09:05.187Z,97840.53
2023-01-19T02:11:52.045Z,97958.72
2023-01-19T02:14:21.544Z,97967.38
2023-01-19T02:16:48.582Z,97874.16
2023-01-19T02:19:26.186Z,97902.72
2023-01-19T02:22:25.788Z,97898.34
2023-01-19T02:24:53.930Z,97970.75
2023-01-19T02:27:20.836Z,97845.38
2023-01-19T02:29:47.777Z,97712.94
2023-01-19T02:32:14.531Z,97790.69
2023-01-19T02:34:41.335Z,97912.06
2023-01-19T02:37:12.515Z,97931.69
2023-01-19T02:39:44.764Z,97880.34
2023-01-19T02:42:21.467Z,97952.69
2023-01-19T02:44:50.802Z,97916.66
2023-01-19T02:47:18.404Z,97935.56
2023-01-19T02:49:45.180Z,97793.56
2023-01-19T02:52:18.028Z,97863.13
2023-01-19T02:55:06.529Z,97841.13
2023-01-19T02:57:49.222Z,98051.19
2023-01-19T03:00:49.894Z,98035.03
2023-01-19T03:03:27.064Z,98047.78
2023-01-19T03:06:08.428Z,98056.41
2023-01-19T03:09:01.589Z,97940.53
2023-01-19T03:11:35.220Z,98093.72
2023-01-19T03:14:11.515Z,98067.84
2023-01-19T03:16:44.057Z,98085.81
2023-01-19T03:19:23.030Z,98083.53
2023-01-19T03:21:55.243Z,98101.00
2023-01-19T03:24:25.002Z,98037.56
2023-01-19T03:26:58.891Z,98089.91
2023-01-19T03:29:30.186Z,98044.78
2023-01-19T03:31:59.765Z,98039.81
2023-01-19T03:34:28.877Z,98083.81
2023-01-19T03:37:00.411Z,98026.81
2023-01-19T03:39:28.889Z,98109.69
2023-01-19T03:42:03.004Z,97978.50
2023-01-19T03:44:32.457Z,98062.59
2023-01-19T03:47:00.175Z,97993.69
2023-01-19T03:49:27.070Z,98142.66
2023-01-19T03:51:58.864Z,98040.94
2023-01-19T03:54:25.954Z,98148.28
2023-01-19T03:56:52.604Z,98142.47
2023-01-19T03:59:20.081Z,98185.03
2023-01-19T04:01:47.032Z,98109.75
2023-01-19T04:04:15.434Z,98111.16
2023-01-19T04:06:43.454Z,98108.59
2023-01-19T04:09:10.375Z,98098.19
2023-01-19T04:11:37.045Z,97977.25
2023-01-19T04:14:04.282Z,98178.91
2023-01-19T04:16:31.032Z,98198.44
2023-01-19T04:18:58.144Z,98180.38
2023-01-19T04:21:25.029Z,98099.34
2023-01-19T04:23:53.151Z,98048.00
2023-01-19T04:26:20.145Z,97943.16
2023-01-19T04:28:54.533Z,98042.94
2023-01-19T04:31:24.923Z,98238.59
2023-01-19T04:33:51.682Z,98163.59
2023-01-19T04:36:18.355Z,98224.00
2023-01-19T04:38:46.674Z,98247.19
2023-01-19T04:41:13.445Z,98139.44
2023-01-19T04:43:40.865Z,98285.50
2023-01-19T04:46:07.778Z,98243.38
2023-01-19T04:48:34.869Z,98128.13
2023-01-19T04:51:01.596Z,98153.25
2023-01-19T04:53:28.362Z,98279.03
2023-01-19T04:55:55.415Z,98286.00
2023-01-19T04:58:22.237Z,98206.03
2023-01-19T05:00:49.289Z,98279.38
2023-01-19T05:03:16.128Z,98174.41
2023-01-19T05:05:42.857Z,98280.13
2023-01-19T05:08:09.635Z,98229.69
2023-01-19T05:10:36.590Z,98197.50
2023-01-19T05:13:04.236Z,98267.78
2023-01-19T05:15:31.001Z,98083.06
2023-01-19T05:17:58.545Z,98289.50
2023-01-19T05:20:26.102Z,98166.53
2023-01-19T05:22:53.677Z,98295.28
2023-01-19T05:25:20.878Z,98276.97
2023-01-19T05:27:47.923Z,98223.00
2023-01-19T05:30:14.788Z,98320.88
2023-01-19T05:32:41.652Z,98305.69
2023-01-19T05:35:09.546Z,98331.97
2023-01-19T05:37:36.371Z,98275.78
2023-01-19T05:40:03.611Z,98361.66
2023-01-19T05:42:32.099Z,98194.81
2023-01-19T05:45:00.193Z,98236.91
2023-01-19T05:47:30.851Z,98242.38
2023-01-19T05:49:57.880Z,98280.38
2023-01-19T05:52:27.748Z,98128.03
2023-01-19T05:54:55.234Z,98377.25
2023-01-19T05:57:22.785Z,98334.16
2023-01-19T05:59:49.678Z,98386.72
2023-01-19T06:02:16.829Z,98400.28
2023-01-19T06:04:43.493Z,98289.25
2023-01-19T06:07:10.161Z,98359.69
2023-01-19T06:09:37.131Z,98389.34
2023-01-19T06:12:04.362Z,98404.81
2023-01-19T06:14:32.442Z,98136.69
2023-01-19T06:16:59.318Z,98206.53
2023-01-19T06:19:26.111Z,98229.13
2023-01-19T06:21:52.886Z,98401.66
2023-01-19T06:24:20.063Z,98374.50
2023-01-19T06:26:46.971Z,98349.50
2023-01-19T06:29:14.638Z,98182.16
2023-01-19T06:31:42.468Z,98271.25
2023-01-19T06:34:09.842Z,98434.19
2023-01-19T06:36:36.908Z,98421.88
2023-01-19T06:39:05.956Z,98469.13
2023-01-19T06:41:37.032Z,98404.69
2023-01-19T06:44:04.593Z,98255.50
2023-01-19T06:46:31.917Z,98438.78
2023-01-19T06:48:58.846Z,98438.78
2023-01-19T06:51:26.235Z,98336.56
2023-01-19T06:53:53.162Z,98250.16
2023-01-19T06:56:19.812Z,98364.31
2023-01-19T06:58:48.410Z,98442.63
2023-01-19T07:01:15.411Z,98416.16
2023-01-19T07:03:42.528Z,98404.53
2023-01-19T07:06:09.404Z,98374.34
2023-01-19T07:08:37.405Z,98294.00
2023-01-19T07:11:25.799Z,98462.06
2023-01-19T07:13:56.039Z,98359.34
2023-01-19T07:16:23.122Z,98317.75
2023-01-19T07:18:50.173Z,98376.28
2023-01-19T07:21:17.855Z,98373.88
2023-01-19T07:23:47.773Z,98263.44
2023-01-19T07:26:15.348Z,98479.72
2023-01-19T07:28:42.270Z,98263.28
2023-01-19T07:31:09.689Z,98469.06
2023-01-19T07:33:36.762Z,98328.06
2023-01-19T07:36:03.692Z,98482.44
2023-01-19T07:38:30.738Z,98470.88
2023-01-19T07:41:05.305Z,98462.50
2023-01-19T07:43:33.112Z,98469.59
2023-01-19T07:46:01.796Z,98440.75
2023-01-19T07:48:29.109Z,98477.75
2023-01-19T07:51:11.711Z,98452.69
2023-01-19T07:53:40.035Z,98443.63
2023-01-19T07:56:07.812Z,98413.88
2023-01-19T07:58:34.759Z,98455.81
2023-01-19T08:01:06.656Z,98391.72
2023-01-19T08:03:33.523Z,98501.56
2023-01-19T08:06:00.499Z,98454.72
2023-01-19T08:08:30.724Z,98495.25
2023-01-19T08:10:58.989Z,98497.34
2023-01-19T08:14:01.097Z,98499.28
2023-01-19T08:16:28.760Z,98458.06
2023-01-19T08:21:46.548Z,98508.38
2023-01-19T08:24:21.669Z,98557.31
2023-01-19T08:26:50.419Z,98520.09
2023-01-19T08:29:20.517Z,98582.16
2023-01-19T08:31:47.720Z,98584.81
2023-01-19T08:34:14.821Z,98578.03
2023-01-19T08:37:02.333Z,98570.53
2023-01-19T08:39:31.313Z,98558.84
2023-01-19T08:42:03.559Z,98580.38
2023-01-19T08:44:30.838Z,98577.72
2023-01-19T08:47:00.015Z,98491.56
2023-01-19T08:49:31.024Z,98606.53
2023-01-19T08:51:59.249Z,98457.88
2023-01-19T08:54:26.074Z,98565.50
2023-01-19T08:56:54.336Z,98618.66
2023-01-19T08:59:38.231Z,98582.41
2023-01-19T09:02:05.373Z,98536.50
2023-01-19T09:04:34.547Z,98578.19
2023-01-19T09:07:02.589Z,98603.09
2023-01-19T09:09:29.656Z,98524.31
2023-01-19T09:11:56.357Z,98518.88
2023-01-19T09:14:23.256Z,98444.59
2023-01-19T09:16:50.078Z,98460.31
2023-01-19T09:19:16.936Z,98598.78
2023-01-19T09:21:43.834Z,98487.66
2023-01-19T09:24:10.669Z,98516.69
2023-01-19T09:26:37.497Z,98542.56
2023-01-19T09:29:04.350Z,98507.41
2023-01-19T09:31:31.157Z,98573.06
2023-01-19T09:33:58.070Z,98402.72
2023-01-19T09:36:25.086Z,98462.88
2023-01-19T09:38:52.000Z,98509.06
2023-01-19T09:41:22.703Z,98543.72
2023-01-19T09:43:56.650Z,98560.56
2023-01-19T09:46:46.556Z,98502.16
2023-01-19T09:49:24.602Z,98541.56
2023-01-19T09:51:51.517Z,98587.19
2023-01-19T09:54:25.269Z,98559.16
2023-01-19T09:56:53.756Z,98600.63
2023-01-19T09:59:21.610Z,98579.25
2023-01-19T10:01:55.607Z,98558.22
2023-01-19T10:04:32.228Z,98577.00
2023-01-19T10:07:30.093Z,98523.28
2023-01-19T10:10:23.489Z,98551.00
2023-01-19T10:13:01.578Z,98539.69
2023-01-19T10:15:58.502Z,98332.09
2023-01-19T10:18:35.725Z,98538.59
2023-01-19T10:21:08.653Z,98502.56
2023-01-19T10:23:38.590Z,98464.97
2023-01-19T10:26:25.958Z,98462.19
2023-01-19T10:29:02.574Z,98374.78
2023-01-19T10:31:29.461Z,98364.16
2023-01-19T10:33:56.247Z,98421.19
2023-01-19T10:36:33.917Z,98501.25
2023-01-19T10:39:00.674Z,98452.22
2023-01-19T10:41:50.527Z,98501.50
2023-01-19T10:44:28.843Z,98528.00
2023-01-19T10:46:58.702Z,98522.41
2023-01-19T10:49:34.977Z,98498.88
2023-01-19T10:52:03.104Z,98496.41
2023-01-19T10:54:31.813Z,98499.88
2023-01-19T10:57:05.030Z,98482.69
2023-01-19T10:59:43.940Z,98488.59
2023-01-19T11:02:22.995Z,98504.88
2023-01-19T11:04:53.092Z,98340.06
2023-01-19T11:07:26.120Z,98490.97
2023-01-19T11:10:11.724Z,98491.72
2023-01-19T11:12:53.507Z,98377.16
2023-01-19T11:15:28.511Z,98453.44
2023-01-19T11:17:55.696Z,98505.06
2023-01-19T11:20:35.020Z,98382.75
2023-01-19T11:23:27.230Z,98490.50
2023-01-19T11:25:58.064Z,98484.13
2023-01-19T11:28:39.907Z,98530.47
2023-01-19T11:31:15.680Z,98521.00
2023-01-19T11:33:43.668Z,98513.19
2023-01-19T11:36:24.792Z,98494.34
2023-01-19T11:39:15.834Z,98469.97
2023-01-19T11:41:42.903Z,98448.34
2023-01-19T11:44:33.856Z,98489.97
2023-01-19T11:47:04.979Z,98415.00
2023-01-19T11:49:47.405Z,98416.09
2023-01-19T11:52:17.104Z,98497.09
2023-01-19T11:55:05.336Z,98324.03
2023-01-19T11:57:32.066Z,98475.94
2023-01-19T12:00:03.573Z,98301.84
2023-01-19T12:02:44.795Z,98463.38
2023-01-19T12:05:16.123Z,98420.91
2023-01-19T12:07:45.356Z,98405.41
2023-01-19T12:10:27.132Z,98468.28
2023-01-19T12:12:54.306Z,98471.84
2023-01-19T12:15:37.469Z,98415.69
2023-01-19T12:18:12.022Z,98479.63
2023-01-19T12:20:44.429Z,98482.09
2023-01-19T12:23:11.151Z,98475.88
2023-01-19T12:25:46.719Z,98489.47
2023-01-19T12:28:16.760Z,98389.28
2023-01-19T12:30:44.496Z,98454.75
2023-01-19T12:33:26.516Z,98472.41
2023-01-19T12:36:14.643Z,98380.91
2023-01-19T12:39:02.194Z,98473.50
2023-01-19T12:41:35.037Z,98385.03
2023-01-19T12:44:16.776Z,98465.75
2023-01-19T12:47:06.413Z,98456.66
2023-01-19T12:49:35.526Z,98397.94
2023-01-19T12:52:35.807Z,98438.19
2023-01-19T12:55:14.728Z,98425.50
2023-01-19T12:57:55.405Z,98442.56
2023-01-19T13:00:22.163Z,98452.78
2023-01-19T13:02:56.194Z,98274.81
2023-01-19T13:05:33.168Z,98466.75
2023-01-19T13:08:03.010Z,98468.56
2023-01-19T13:11:04.977Z,98457.56
2023-01-19T13:13:42.381Z,98445.63
2023-01-19T13:16:18.215Z,98441.91
2023-01-19T13:19:13.119Z,98330.63
2023-01-19T13:21:45.760Z,98395.16
2023-01-19T13:24:17.779Z,98344.78
2023-01-19T13:26:50.333Z,98438.88
2023-01-19T13:29:17.099Z,98438.94
2023-01-19T13:31:45.999Z,98436.38
2023-01-19T13:34:19.960Z,98423.09
2023-01-19T13:36:52.886Z,98410.19
2023-01-19T13:39:51.122Z,98400.75
2023-01-19T13:42:37.877Z,98421.66
2023-01-19T13:45:33.541Z,98393.78
2023-01-19T13:48:05.265Z,98405.06
2023-01-19T13:50:35.246Z,98302.31
2023-01-19T13:53:04.613Z,98363.63
2023-01-19T13:55:31.776Z,98332.94
2023-01-19T13:57:58.681Z,98314.16
2023-01-19T14:00:30.777Z,98371.16
2023-01-19T14:03:13.853Z,98333.72
2023-01-19T14:05:43.962Z,98405.34
2023-01-19T14:08:13.705Z,98405.94
2023-01-19T14:11:01.193Z,98410.16
2023-01-19T14:13:35.012Z,98402.28
2023-01-19T14:16:07.023Z,98383.03
2023-01-19T14:18:36.897Z,98353.69
2023-01-19T14:21:11.337Z,98393.72
2023-01-19T14:23:49.300Z,98390.25
2023-01-19T14:26:38.224Z,98392.97
2023-01-19T14:29:34.605Z,98388.59
2023-01-19T14:32:01.473Z,98387.84
2023-01-19T14:34:39.182Z,98388.00
2023-01-19T14:37:16.802Z,98352.63
2023-01-19T14:39:46.818Z,98374.09
2023-01-19T14:42:28.611Z,98352.16
2023-01-19T14:44:57.853Z,98375.31
2023-01-19T14:47:29.900Z,98377.25
2023-01-19T14:50:28.331Z,98261.53
2023-01-19T14:53:02.402Z,98373.25
2023-01-19T14:55:35.660Z,98249.84
2023-01-19T14:58:07.706Z,98374.91
2023-01-19T15:00:34.403Z,98260.41
2023-01-19T15:03:01.103Z,98352.38
2023-01-19T15:05:28.207Z,98276.91
2023-01-19T15:07:56.538Z,98405.81
2023-01-19T15:10:24.911Z,98375.09
2023-01-19T15:12:54.024Z,98388.59
2023-01-19T15:15:29.242Z,98318.09
2023-01-19T15:17:56.541Z,98331.19
2023-01-19T15:20:23.807Z,98386.84
2023-01-19T15:22:50.742Z,98304.13
2023-01-19T15:25:25.746Z,98291.19
2023-01-19T15:27:53.174Z,98274.13
2023-01-19T15:30:24.656Z,98320.28
2023-01-19T15:32:51.518Z,98257.75
2023-01-19T15:35:23.297Z,98364.41
2023-01-19T15:37:51.573Z,98283.94
2023-01-19T15:40:19.812Z,98334.91
2023-01-19T15:42:46.798Z,98261.91
2023-01-19T15:45:54.733Z,98388.22
2023-01-19T15:48:22.482Z,98354.16
2023-01-19T15:50:49.267Z,98362.13
2023-01-19T15:53:18.879Z,98372.38
2023-01-19T15:55:50.235Z,98273.81
2023-01-19T15:58:18.497Z,98290.72
2023-01-19T16:00:45.283Z,98217.97
2023-01-19T16:03:12.012Z,98342.06
2023-01-19T16:05:43.425Z,98254.44
2023-01-19T16:08:11.727Z,98319.03
2023-01-19T16:10:43.361Z,98274.13
2023-01-19T16:13:11.388Z,98302.00
2023-01-19T16:15:39.752Z,98225.50
2023-01-19T16:18:06.697Z,98223.41
2023-01-19T16:20:33.554Z,98274.69
2023-01-19T16:23:14.535Z,98314.16
2023-01-19T16:25:42.395Z,98211.84
2023-01-19T16:28:09.377Z,98318.66
2023-01-19T16:30:36.220Z,98304.19
2023-01-19T16:33:03.469Z,98250.06
2023-01-19T16:35:30.189Z,98330.75
2023-01-19T16:37:56.890Z,98311.47
2023-01-19T16:40:23.651Z,98223.38
2023-01-19T16:42:51.075Z,98275.91
2023-01-19T16:45:17.817Z,98139.00
2023-01-19T16:47:46.943Z,98151.81
2023-01-19T16:50:13.672Z,98221.16
2023-01-19T16:52:40.508Z,98219.09
2023-01-19T16:55:09.600Z,98273.72
2023-01-19T16:57:38.950Z,98228.97
2023-01-19T17:00:09.379Z,98273.59
2023-01-19T17:02:41.025Z,98182.44
2023-01-19T17:05:08.446Z,98166.38
2023-01-19T17:07:35.309Z,98192.25
2023-01-19T17:10:02.301Z,98139.53
2023-01-19T17:12:32.059Z,98272.91
2023-01-19T17:14:59.679Z,98272.81
2023-01-19T17:17:26.908Z,98237.38
2023-01-19T17:19:54.474Z,98271.47
2023-01-19T17:22:21.679Z,98139.78
2023-01-19T17:24:49.160Z,98279.84
2023-01-19T17:27:17.150Z,98278.84
2023-01-19T17:29:43.875Z,98191.59
2023-01-19T17:32:10.677Z,98178.03
2023-01-19T17:34:37.520Z,98257.00
2023-01-19T17:37:04.486Z,98273.50
2023-01-19T17:39:31.600Z,98263.59
2023-01-19T17:41:58.673Z,98122.56
2023-01-19T17:44:25.533Z,98231.38
2023-01-19T17:46:52.324Z,98200.25
2023-01-19T17:49:19.067Z,98152.00
2023-01-19T17:51:51.739Z,98221.59
2023-01-19T17:54:19.257Z,98218.78
2023-01-19T17:56:46.015Z,98081.31
2023-01-19T17:59:13.165Z,98077.66
2023-01-19T18:01:40.619Z,98196.94
2023-01-19T18:04:08.473Z,98252.88
2023-01-19T18:06:35.820Z,98095.16
2023-01-19T18:09:04.839Z,98146.69
2023-01-19T18:11:32.449Z,98245.34
2023-01-19T18:14:00.644Z,98117.13
2023-01-19T18:16:29.950Z,98139.84
2023-01-19T18:18:57.124Z,98241.63
2023-01-19T18:21:27.408Z,98227.72
2023-01-19T18:24:01.218Z,98243.22
2023-01-19T18:26:28.647Z,98222.69
2023-01-19T18:28:57.224Z,98180.78
2023-01-19T18:31:25.677Z,98145.66
2023-01-19T18:33:53.014Z,98130.69
2023-01-19T18:36:20.363Z,98109.66
2023-01-19T18:38:47.699Z,98045.13
2023-01-19T18:41:17.286Z,98189.50
2023-01-19T18:43:44.176Z,98135.63
2023-01-19T18:46:11.483Z,98087.69
2023-01-19T18:48:39.608Z,98160.84
2023-01-19T18:51:12.232Z,98133.75
2023-01-19T18:53:39.493Z,98096.38
2023-01-19T18:56:06.560Z,97981.22
2023-01-19T18:58:37.994Z,98115.88
2023-01-19T19:01:16.687Z,98125.56
2023-01-19T19:03:43.597Z,98037.91
2023-01-19T19:06:11.763Z,98050.28
2023-01-19T19:08:38.841Z,98111.47
2023-01-19T19:11:12.668Z,98126.13
2023-01-19T19:13:40.903Z,98118.03
2023-01-19T19:16:09.437Z,98133.59
2023-01-19T19:18:38.058Z,98059.00
2023-01-19T19:21:07.436Z,98029.03
2023-01-19T19:23:34.704Z,98056.94
2023-01-19T19:26:07.323Z,98050.06
2023-01-19T19:28:37.159Z,98030.41
2023-01-19T19:31:10.344Z,98027.91
2023-01-19T19:33:38.091Z,98100.81
2023-01-19T19:36:06.220Z,97993.53
2023-01-19T19:38:33.337Z,97990.25
2023-01-19T19:41:05.215Z,98083.47
2023-01-19T19:43:33.147Z,98097.69
2023-01-19T19:46:06.520Z,98074.84
2023-01-19T19:48:34.075Z,98083.88
2023-01-19T19:51:17.559Z,98118.38
2023-01-19T19:53:46.512Z,98097.53
2023-01-19T19:56:13.869Z,98078.41
2023-01-19T19:58:44.701Z,98057.41
2023-01-19T20:01:14.640Z,98124.13
2023-01-19T20:03:42.238Z,98114.28
2023-01-19T20:06:15.449Z,98077.41
2023-01-19T20:08:43.068Z,97987.00
2023-01-19T20:11:13.720Z,98097.53
2023-01-19T20:13:41.495Z,98113.78
2023-01-19T20:16:12.685Z,98061.53
2023-01-19T20:18:48.797Z,98044.66
2023-01-19T20:21:19.444Z,98090.78
2023-01-19T20:23:49.278Z,97895.31
2023-01-19T20:26:20.202Z,98000.13
2023-01-19T20:28:47.588Z,98082.59
2023-01-19T20:31:24.580Z,98094.22
2023-01-19T20:33:52.944Z,98078.59
2023-01-19T20:36:21.984Z,98069.19
2023-01-19T20:38:48.685Z,98047.16
2023-01-19T20:41:15.609Z,98069.91
2023-01-19T20:43:42.608Z,98067.41
2023-01-19T20:46:10.273Z,97948.66
2023-01-19T20:48:39.177Z,98015.16
2023-01-19T20:51:08.882Z,98003.28
2023-01-19T20:53:35.894Z,97938.34
2023-01-19T20:56:06.168Z,98012.75
2023-01-19T20:58:33.817Z,98047.00
2023-01-19T21:01:00.681Z,98031.44
2023-01-19T21:03:29.506Z,98063.78
2023-01-19T21:05:59.401Z,97994.97
2023-01-19T21:08:26.221Z,98029.69
2023-01-19T21:10:56.452Z,98076.75
2023-01-19T21:13:23.203Z,98049.38
2023-01-19T21:15:50.210Z,98039.94
2023-01-19T21:18:17.062Z,98007.13
2023-01-19T21:20:44.841Z,98136.53
2023-01-19T21:23:11.510Z,98036.44
2023-01-19T21:25:38.321Z,98148.59
2023-01-19T21:28:05.177Z,98080.09
2023-01-19T21:30:31.889Z,97984.28
2023-01-19T21:32:58.686Z,98056.03
2023-01-19T21:35:25.489Z,98080.50
2023-01-19T21:37:52.187Z,97850.31
2023-01-19T21:40:19.029Z,98042.75
2023-01-19T21:42:45.757Z,98084.16
2023-01-19T21:45:12.948Z,97903.41
2023-01-19T21:47:39.789Z,98099.94
2023-01-19T21:50:06.691Z,97979.47
2023-01-19T21:52:33.429Z,98001.84
2023-01-19T21:55:00.169Z,98031.25
2023-01-19T21:57:26.896Z,98101.03
2023-01-19T21:59:53.608Z,97992.66
2023-01-19T22:02:37.147Z,97937.91
2023-01-19T22:05:06.490Z,97902.06
2023-01-19T22:07:33.362Z,98007.31
2023-01-19T22:10:02.539Z,97991.97
2023-01-19T22:12:33.323Z,98004.31
2023-01-19T22:15:00.053Z,97954.16
2023-01-19T22:17:26.745Z,98020.84
2023-01-19T22:19:53.685Z,97990.75
2023-01-19T22:22:20.872Z,97910.06
2023-01-19T22:24:50.205Z,98087.53
2023-01-19T22:27:17.324Z,98055.28
2023-01-19T22:29:44.059Z,97957.16
2023-01-19T22:32:10.789Z,97995.63
2023-01-19T22:34:37.575Z,98010.75
2023-01-19T22:37:06.382Z,98003.66
2023-01-19T22:39:34.395Z,98010.84
2023-01-19T22:42:01.185Z,97994.47
2023-01-19T22:44:27.931Z,98003.66
2023-01-19T22:46:55.988Z,98087.59
2023-01-19T22:49:22.984Z,98031.94
2023-01-19T22:51:49.717Z,97898.16
2023-01-19T22:54:16.500Z,98017.09
2023-01-19T22:56:43.342Z,98041.88
2023-01-19T22:59:10.070Z,98049.09
2023-01-19T23:01:42.948Z,98093.41
2023-01-19T23:04:15.448Z,98008.44
2023-01-19T23:06:42.664Z,98045.63
2023-01-19T23:09:14.001Z,98007.69
2023-01-19T23:11:43.272Z,98078.47
2023-01-19T23:14:15.649Z,98057.72
2023-01-19T23:16:42.854Z,98059.56
2023-01-19T23:19:11.745Z,98026.19
2023-01-19T23:21:38.673Z,98062.59
2023-01-19T23:24:06.127Z,98062.34
2023-01-19T23:26:38.244Z,98068.84
2023-01-19T23:29:08.090Z,98072.91
2023-01-19T23:31:37.060Z,98090.09
2023-01-19T23:34:09.051Z,98090.81
2023-01-19T23:36:37.700Z,97971.31
2023-01-19T23:39:14.151Z,98087.38
2023-01-19T23:41:40.928Z,98035.72
2023-01-19T23:44:08.766Z,98056.06
2023-01-19T23:46:35.622Z,98012.16
2023-01-19T23:49:02.533Z,98064.50
2023-01-19T23:51:31.715Z,98033.50
2023-01-19T23:53:59.441Z,98117.50
2023-01-19T23:56:32.132Z,98117.31
2023-01-19T23:59:01.704Z,98082.44
